sensor_id;sensor_type;location;lat;lon;timestamp;pressure;altitude;pressure_sealevel;temperature;humidity
56330;BME280;42236;48.058;10.632;2023-02-12T00:00:15;96478.41;;;0.98;74.37
56330;BME280;42236;48.058;10.632;2023-02-12T00:03:01;96478.53;;;0.92;74.65
56330;BME280;42236;48.058;10.632;2023-02-12T00:05:47;96469.66;;;0.86;74.79
56330;BME280;42236;48.058;10.632;2023-02-12T00:08:34;96475.44;;;0.83;74.83
56330;BME280;42236;48.058;10.632;2023-02-12T00:11:22;96472.78;;;0.71;75.26
56330;BME280;42236;48.058;10.632;2023-02-12T00:14:08;96476.81;;;0.62;75.61
56330;BME280;42236;48.058;10.632;2023-02-12T00:16:54;96486.16;;;0.53;76.04
56330;BME280;42236;48.058;10.632;2023-02-12T00:19:39;96476.25;;;0.48;75.98
56330;BME280;42236;48.058;10.632;2023-02-12T00:22:25;96476.97;;;0.44;76.54
56330;BME280;42236;48.058;10.632;2023-02-12T00:25:12;96480.63;;;0.42;76.39
56330;BME280;42236;48.058;10.632;2023-02-12T00:27:58;96482.69;;;0.40;76.60
56330;BME280;42236;48.058;10.632;2023-02-12T00:30:44;96483.50;;;0.41;76.37
56330;BME280;42236;48.058;10.632;2023-02-12T00:33:29;96487.56;;;0.44;76.07
56330;BME280;42236;48.058;10.632;2023-02-12T00:36:17;96482.47;;;0.42;76.46
56330;BME280;42236;48.058;10.632;2023-02-12T00:39:03;96489.19;;;0.45;76.31
56330;BME280;42236;48.058;10.632;2023-02-12T00:41:49;96499.81;;;0.45;76.18
56330;BME280;42236;48.058;10.632;2023-02-12T00:44:35;96505.00;;;0.51;76.12
56330;BME280;42236;48.058;10.632;2023-02-12T00:47:20;96506.41;;;0.54;76.02
56330;BME280;42236;48.058;10.632;2023-02-12T00:50:06;96511.81;;;0.59;76.10
56330;BME280;42236;48.058;10.632;2023-02-12T00:52:52;96512.41;;;0.61;76.37
56330;BME280;42236;48.058;10.632;2023-02-12T00:55:38;96517.81;;;0.66;76.05
56330;BME280;42236;48.058;10.632;2023-02-12T00:58:23;96510.88;;;0.65;76.22
56330;BME280;42236;48.058;10.632;2023-02-12T01:01:09;96517.25;;;0.64;76.58
56330;BME280;42236;48.058;10.632;2023-02-12T01:03:55;96517.72;;;0.61;76.93
56330;BME280;42236;48.058;10.632;2023-02-12T01:06:40;96524.97;;;0.54;76.77
56330;BME280;42236;48.058;10.632;2023-02-12T01:09:26;96521.28;;;0.55;76.83
56330;BME280;42236;48.058;10.632;2023-02-12T01:12:12;96515.38;;;0.53;77.25
56330;BME280;42236;48.058;10.632;2023-02-12T01:14:57;96515.25;;;0.48;77.81
56330;BME280;42236;48.058;10.632;2023-02-12T01:17:43;96514.13;;;0.44;77.99
56330;BME280;42236;48.058;10.632;2023-02-12T01:20:29;96510.41;;;0.45;78.05
56330;BME280;42236;48.058;10.632;2023-02-12T01:23:14;96507.53;;;0.46;77.89
56330;BME280;42236;48.058;10.632;2023-02-12T01:26:00;96508.69;;;0.50;77.85
56330;BME280;42236;48.058;10.632;2023-02-12T01:28:56;96514.78;;;0.51;77.72
56330;BME280;42236;48.058;10.632;2023-02-12T01:31:42;96505.81;;;0.52;77.94
56330;BME280;42236;48.058;10.632;2023-02-12T01:34:28;96496.91;;;0.58;78.13
56330;BME280;42236;48.058;10.632;2023-02-12T01:37:14;96495.66;;;0.60;78.06
56330;BME280;42236;48.058;10.632;2023-02-12T01:40:00;96500.97;;;0.60;77.96
56330;BME280;42236;48.058;10.632;2023-02-12T01:42:45;96503.84;;;0.59;78.12
56330;BME280;42236;48.058;10.632;2023-02-12T01:45:44;96494.25;;;0.58;78.50
56330;BME280;42236;48.058;10.632;2023-02-12T01:48:37;96497.75;;;0.58;78.64
56330;BME280;42236;48.058;10.632;2023-02-12T01:51:24;96494.81;;;0.60;78.45
56330;BME280;42236;48.058;10.632;2023-02-12T01:54:14;96505.00;;;0.63;78.36
56330;BME280;42236;48.058;10.632;2023-02-12T01:57:04;96490.47;;;0.66;78.23
56330;BME280;42236;48.058;10.632;2023-02-12T01:59:53;96489.78;;;0.70;77.89
56330;BME280;42236;48.058;10.632;2023-02-12T02:02:45;96494.03;;;0.71;77.92
56330;BME280;42236;48.058;10.632;2023-02-12T02:08:24;96496.31;;;0.79;77.90
56330;BME280;42236;48.058;10.632;2023-02-12T02:11:10;96498.75;;;0.81;77.87
56330;BME280;42236;48.058;10.632;2023-02-12T02:14:14;96490.22;;;0.79;77.79
56330;BME280;42236;48.058;10.632;2023-02-12T02:17:40;96495.31;;;0.80;77.95
56330;BME280;42236;48.058;10.632;2023-02-12T02:20:48;96485.69;;;0.79;78.12
56330;BME280;42236;48.058;10.632;2023-02-12T02:24:02;96485.69;;;0.79;77.96
56330;BME280;42236;48.058;10.632;2023-02-12T02:27:05;96492.06;;;0.78;78.42
56330;BME280;42236;48.058;10.632;2023-02-12T02:39:25;96498.66;;;0.88;78.24
56330;BME280;42236;48.058;10.632;2023-02-12T02:42:29;96489.41;;;0.90;78.03
56330;BME280;42236;48.058;10.632;2023-02-12T02:45:28;96479.34;;;0.92;78.07
56330;BME280;42236;48.058;10.632;2023-02-12T02:48:21;96475.88;;;0.92;77.94
56330;BME280;42236;48.058;10.632;2023-02-12T02:51:13;96474.84;;;0.93;78.33
56330;BME280;42236;48.058;10.632;2023-02-12T02:54:04;96472.41;;;0.91;78.25
56330;BME280;42236;48.058;10.632;2023-02-12T02:56:57;96466.28;;;0.91;78.34
56330;BME280;42236;48.058;10.632;2023-02-12T02:59:54;96471.38;;;0.92;78.31
56330;BME280;42236;48.058;10.632;2023-02-12T03:03:09;96476.91;;;0.91;78.19
56330;BME280;42236;48.058;10.632;2023-02-12T03:05:58;96481.44;;;0.90;78.51
56330;BME280;42236;48.058;10.632;2023-02-12T03:08:53;96476.59;;;0.87;78.88
56330;BME280;42236;48.058;10.632;2023-02-12T03:11:40;96480.38;;;0.91;78.47
56330;BME280;42236;48.058;10.632;2023-02-12T03:14:32;96483.38;;;0.95;78.77
56330;BME280;42236;48.058;10.632;2023-02-12T03:17:26;96490.88;;;0.98;78.31
56330;BME280;42236;48.058;10.632;2023-02-12T03:20:24;96485.69;;;1.03;78.43
56330;BME280;42236;48.058;10.632;2023-02-12T03:23:16;96484.97;;;1.08;78.11
56330;BME280;42236;48.058;10.632;2023-02-12T03:26:09;96495.38;;;1.09;77.68
56330;BME280;42236;48.058;10.632;2023-02-12T03:28:56;96496.28;;;1.15;77.72
56330;BME280;42236;48.058;10.632;2023-02-12T03:31:52;96496.88;;;1.17;77.99
56330;BME280;42236;48.058;10.632;2023-02-12T03:38:07;96495.91;;;1.23;78.19
56330;BME280;42236;48.058;10.632;2023-02-12T03:41:05;96492.44;;;1.22;78.39
56330;BME280;42236;48.058;10.632;2023-02-12T03:44:21;96492.94;;;1.19;78.64
56330;BME280;42236;48.058;10.632;2023-02-12T03:50:26;96494.44;;;1.15;78.64
56330;BME280;42236;48.058;10.632;2023-02-12T03:53:13;96499.41;;;1.12;78.77
56330;BME280;42236;48.058;10.632;2023-02-12T03:56:03;96496.41;;;1.08;79.16
56330;BME280;42236;48.058;10.632;2023-02-12T03:58:50;96499.66;;;1.10;79.19
56330;BME280;42236;48.058;10.632;2023-02-12T04:01:36;96498.94;;;1.15;78.79
56330;BME280;42236;48.058;10.632;2023-02-12T04:04:23;96491.78;;;1.15;79.11
56330;BME280;42236;48.058;10.632;2023-02-12T04:07:09;96506.13;;;1.14;79.31
56330;BME280;42236;48.058;10.632;2023-02-12T04:09:55;96504.97;;;1.10;79.65
56330;BME280;42236;48.058;10.632;2023-02-12T04:16:06;96513.41;;;1.07;80.13
56330;BME280;42236;48.058;10.632;2023-02-12T04:18:58;96511.34;;;1.09;79.69
56330;BME280;42236;48.058;10.632;2023-02-12T04:25:20;96510.84;;;1.12;80.07
56330;BME280;42236;48.058;10.632;2023-02-12T04:28:27;96511.66;;;1.13;79.68
56330;BME280;42236;48.058;10.632;2023-02-12T04:31:29;96524.16;;;1.12;80.13
56330;BME280;42236;48.058;10.632;2023-02-12T04:37:37;96524.50;;;1.04;80.30
56330;BME280;42236;48.058;10.632;2023-02-12T04:40:25;96533.50;;;1.03;80.05
56330;BME280;42236;48.058;10.632;2023-02-12T04:43:11;96539.63;;;1.03;80.14
56330;BME280;42236;48.058;10.632;2023-02-12T04:45:57;96533.72;;;1.01;80.37
56330;BME280;42236;48.058;10.632;2023-02-12T04:51:39;96529.25;;;1.02;80.02
56330;BME280;42236;48.058;10.632;2023-02-12T04:54:24;96527.41;;;1.02;80.06
56330;BME280;42236;48.058;10.632;2023-02-12T04:57:10;96528.78;;;1.05;80.07
56330;BME280;42236;48.058;10.632;2023-02-12T04:59:56;96526.91;;;1.05;80.09
56330;BME280;42236;48.058;10.632;2023-02-12T05:02:41;96523.00;;;1.08;80.32
56330;BME280;42236;48.058;10.632;2023-02-12T05:05:27;96521.72;;;1.11;80.11
56330;BME280;42236;48.058;10.632;2023-02-12T05:08:13;96519.84;;;1.11;80.09
56330;BME280;42236;48.058;10.632;2023-02-12T05:11:06;96528.88;;;1.10;80.46
56330;BME280;42236;48.058;10.632;2023-02-12T05:13:52;96529.69;;;1.11;80.01
56330;BME280;42236;48.058;10.632;2023-02-12T05:16:38;96525.75;;;1.13;80.08
56330;BME280;42236;48.058;10.632;2023-02-12T05:19:24;96525.75;;;1.13;79.84
56330;BME280;42236;48.058;10.632;2023-02-12T05:22:09;96525.53;;;1.15;79.94
56330;BME280;42236;48.058;10.632;2023-02-12T05:24:55;96522.88;;;1.15;80.17
56330;BME280;42236;48.058;10.632;2023-02-12T05:27:40;96521.00;;;1.15;79.95
56330;BME280;42236;48.058;10.632;2023-02-12T05:30:26;96522.66;;;1.16;79.80
56330;BME280;42236;48.058;10.632;2023-02-12T05:33:12;96522.66;;;1.16;79.32
56330;BME280;42236;48.058;10.632;2023-02-12T05:36:05;96511.44;;;1.14;79.64
56330;BME280;42236;48.058;10.632;2023-02-12T05:38:52;96519.41;;;1.14;79.62
56330;BME280;42236;48.058;10.632;2023-02-12T05:41:41;96522.75;;;1.10;79.92
56330;BME280;42236;48.058;10.632;2023-02-12T05:44:26;96526.44;;;1.09;79.90
56330;BME280;42236;48.058;10.632;2023-02-12T05:47:12;96522.19;;;1.08;79.76
56330;BME280;42236;48.058;10.632;2023-02-12T05:49:57;96523.56;;;1.10;79.80
56330;BME280;42236;48.058;10.632;2023-02-12T05:52:43;96536.97;;;1.15;79.39
56330;BME280;42236;48.058;10.632;2023-02-12T05:55:29;96535.69;;;1.18;79.40
56330;BME280;42236;48.058;10.632;2023-02-12T05:58:14;96541.81;;;1.18;79.00
56330;BME280;42236;48.058;10.632;2023-02-12T06:01:00;96543.44;;;1.19;78.77
56330;BME280;42236;48.058;10.632;2023-02-12T06:03:46;96539.16;;;1.18;78.86
56330;BME280;42236;48.058;10.632;2023-02-12T06:06:32;96542.97;;;1.22;78.87
56330;BME280;42236;48.058;10.632;2023-02-12T06:09:18;96540.09;;;1.24;78.92
56330;BME280;42236;48.058;10.632;2023-02-12T06:12:04;96549.19;;;1.28;79.04
56330;BME280;42236;48.058;10.632;2023-02-12T06:14:50;96548.47;;;1.33;78.74
56330;BME280;42236;48.058;10.632;2023-02-12T06:17:35;96548.03;;;1.36;78.78
56330;BME280;42236;48.058;10.632;2023-02-12T06:20:21;96549.63;;;1.37;78.92
56330;BME280;42236;48.058;10.632;2023-02-12T06:23:06;96552.31;;;1.37;78.64
56330;BME280;42236;48.058;10.632;2023-02-12T06:25:55;96551.72;;;1.35;79.14
56330;BME280;42236;48.058;10.632;2023-02-12T06:28:41;96552.31;;;1.37;78.95
56330;BME280;42236;48.058;10.632;2023-02-12T06:31:31;96550.22;;;1.39;78.96
56330;BME280;42236;48.058;10.632;2023-02-12T06:34:17;96558.53;;;1.42;78.55
56330;BME280;42236;48.058;10.632;2023-02-12T06:37:03;96559.34;;;1.43;78.77
56330;BME280;42236;48.058;10.632;2023-02-12T06:39:49;96560.16;;;1.43;78.44
56330;BME280;42236;48.058;10.632;2023-02-12T06:42:34;96564.19;;;1.46;78.47
56330;BME280;42236;48.058;10.632;2023-02-12T06:45:20;96569.75;;;1.44;78.41
56330;BME280;42236;48.058;10.632;2023-02-12T06:48:05;96571.59;;;1.44;78.45
56330;BME280;42236;48.058;10.632;2023-02-12T06:50:51;96574.84;;;1.46;78.32
56330;BME280;42236;48.058;10.632;2023-02-12T06:53:37;96577.72;;;1.44;78.20
56330;BME280;42236;48.058;10.632;2023-02-12T06:56:24;96579.78;;;1.42;78.48
56330;BME280;42236;48.058;10.632;2023-02-12T06:59:13;96585.94;;;1.43;78.50
56330;BME280;42236;48.058;10.632;2023-02-12T07:02:02;96576.44;;;1.47;78.73
56330;BME280;42236;48.058;10.632;2023-02-12T07:04:48;96582.44;;;1.54;78.59
56330;BME280;42236;48.058;10.632;2023-02-12T07:07:33;96587.31;;;1.57;78.75
56330;BME280;42236;48.058;10.632;2023-02-12T07:10:19;96583.69;;;1.63;78.45
56330;BME280;42236;48.058;10.632;2023-02-12T07:13:05;96580.09;;;1.69;78.44
56330;BME280;42236;48.058;10.632;2023-02-12T07:15:51;96584.47;;;1.76;78.32
56330;BME280;42236;48.058;10.632;2023-02-12T07:18:36;96573.91;;;1.81;78.17
56330;BME280;42236;48.058;10.632;2023-02-12T07:21:22;96566.59;;;1.88;78.37
56330;BME280;42236;48.058;10.632;2023-02-12T07:24:09;96566.97;;;1.91;78.34
56330;BME280;42236;48.058;10.632;2023-02-12T07:26:56;96555.03;;;1.94;78.08
56330;BME280;42236;48.058;10.632;2023-02-12T07:29:42;96564.63;;;1.95;78.29
56330;BME280;42236;48.058;10.632;2023-02-12T07:32:27;96564.72;;;2.00;78.32
56330;BME280;42236;48.058;10.632;2023-02-12T07:35:13;96565.84;;;2.04;78.10
56330;BME280;42236;48.058;10.632;2023-02-12T07:37:58;96573.13;;;2.09;78.28
56330;BME280;42236;48.058;10.632;2023-02-12T07:40:44;96568.13;;;2.12;78.16
56330;BME280;42236;48.058;10.632;2023-02-12T07:43:30;96574.09;;;2.20;78.04
56330;BME280;42236;48.058;10.632;2023-02-12T07:46:18;96564.13;;;2.27;77.52
56330;BME280;42236;48.058;10.632;2023-02-12T07:49:06;96568.28;;;2.34;77.43
56330;BME280;42236;48.058;10.632;2023-02-12T07:51:51;96569.66;;;2.37;77.32
56330;BME280;42236;48.058;10.632;2023-02-12T07:54:39;96566.00;;;2.43;77.35
56330;BME280;42236;48.058;10.632;2023-02-12T07:57:25;96563.69;;;2.47;77.32
56330;BME280;42236;48.058;10.632;2023-02-12T08:00:11;96560.84;;;2.53;77.38
56330;BME280;42236;48.058;10.632;2023-02-12T08:02:57;96553.19;;;2.57;77.29
56330;BME280;42236;48.058;10.632;2023-02-12T08:05:42;96555.69;;;2.64;77.36
56330;BME280;42236;48.058;10.632;2023-02-12T08:08:28;96555.78;;;2.69;77.61
56330;BME280;42236;48.058;10.632;2023-02-12T08:11:14;96558.50;;;2.74;77.27
56330;BME280;42236;48.058;10.632;2023-02-12T08:14:00;96561.81;;;2.81;77.17
56330;BME280;42236;48.058;10.632;2023-02-12T08:16:47;96558.44;;;2.86;77.66
56330;BME280;42236;48.058;10.632;2023-02-12T08:19:33;96556.63;;;2.91;77.75
56330;BME280;42236;48.058;10.632;2023-02-12T08:22:19;96558.28;;;2.92;77.63
56330;BME280;42236;48.058;10.632;2023-02-12T08:25:05;96558.81;;;2.94;77.91
56330;BME280;42236;48.058;10.632;2023-02-12T08:27:51;96561.00;;;2.97;77.74
56330;BME280;42236;48.058;10.632;2023-02-12T08:30:36;96563.75;;;3.03;77.98
56330;BME280;42236;48.058;10.632;2023-02-12T08:33:22;96560.66;;;3.11;77.93
56330;BME280;42236;48.058;10.632;2023-02-12T08:36:12;96553.28;;;3.18;77.95
56330;BME280;42236;48.058;10.632;2023-02-12T08:38:59;96544.84;;;3.26;77.53
56330;BME280;42236;48.058;10.632;2023-02-12T08:41:46;96546.63;;;3.37;77.92
56330;BME280;42236;48.058;10.632;2023-02-12T08:44:31;96549.66;;;3.46;77.84
56330;BME280;42236;48.058;10.632;2023-02-12T08:47:17;96540.34;;;3.49;77.95
56330;BME280;42236;48.058;10.632;2023-02-12T08:50:03;96549.50;;;3.53;77.81
56330;BME280;42236;48.058;10.632;2023-02-12T08:52:49;96551.38;;;3.57;77.88
56330;BME280;42236;48.058;10.632;2023-02-12T08:55:34;96549.59;;;3.63;77.75
56330;BME280;42236;48.058;10.632;2023-02-12T08:58:20;96546.75;;;3.70;77.98
56330;BME280;42236;48.058;10.632;2023-02-12T09:01:11;96549.78;;;3.78;78.00
56330;BME280;42236;48.058;10.632;2023-02-12T09:03:58;96549.59;;;3.85;78.14
56330;BME280;42236;48.058;10.632;2023-02-12T09:06:45;96545.91;;;3.91;78.26
56330;BME280;42236;48.058;10.632;2023-02-12T09:09:30;96544.41;;;4.00;78.38
56330;BME280;42236;48.058;10.632;2023-02-12T09:12:16;96535.13;;;4.08;78.48
56330;BME280;42236;48.058;10.632;2023-02-12T09:15:02;96542.16;;;4.14;78.71
56330;BME280;42236;48.058;10.632;2023-02-12T09:17:48;96547.53;;;4.19;79.50
56330;BME280;42236;48.058;10.632;2023-02-12T09:20:36;96534.22;;;4.24;79.57
56330;BME280;42236;48.058;10.632;2023-02-12T09:23:22;96544.97;;;4.30;79.61
56330;BME280;42236;48.058;10.632;2023-02-12T09:26:09;96530.59;;;4.36;79.51
56330;BME280;42236;48.058;10.632;2023-02-12T09:28:57;96543.97;;;4.36;79.54
56330;BME280;42236;48.058;10.632;2023-02-12T09:31:43;96539.97;;;4.38;80.42
56330;BME280;42236;48.058;10.632;2023-02-12T09:34:28;96547.28;;;4.48;80.16
56330;BME280;42236;48.058;10.632;2023-02-12T09:37:14;96537.19;;;4.55;80.34
56330;BME280;42236;48.058;10.632;2023-02-12T09:40:00;96542.56;;;4.60;80.90
56330;BME280;42236;48.058;10.632;2023-02-12T09:43:11;96540.50;;;4.67;81.25
56330;BME280;42236;48.058;10.632;2023-02-12T09:46:04;96531.75;;;4.77;80.91
56330;BME280;42236;48.058;10.632;2023-02-12T09:49:07;96534.16;;;4.79;80.66
56330;BME280;42236;48.058;10.632;2023-02-12T09:51:57;96531.53;;;4.84;80.29
56330;BME280;42236;48.058;10.632;2023-02-12T09:54:43;96533.16;;;4.90;80.23
56330;BME280;42236;48.058;10.632;2023-02-12T09:57:32;96538.50;;;4.90;80.19
56330;BME280;42236;48.058;10.632;2023-02-12T10:00:28;96534.75;;;4.86;80.62
56330;BME280;42236;48.058;10.632;2023-02-12T10:03:16;96542.50;;;4.87;80.75
56330;BME280;42236;48.058;10.632;2023-02-12T10:06:05;96548.75;;;4.98;80.70
56330;BME280;42236;48.058;10.632;2023-02-12T10:18:29;96549.25;;;5.38;80.35
56330;BME280;42236;48.058;10.632;2023-02-12T10:25:01;96542.06;;;5.48;79.28
56330;BME280;42236;48.058;10.632;2023-02-12T10:27:50;96548.81;;;5.56;79.31
56330;BME280;42236;48.058;10.632;2023-02-12T10:30:43;96541.59;;;5.62;79.70
56330;BME280;42236;48.058;10.632;2023-02-12T10:33:38;96545.03;;;5.57;79.95
56330;BME280;42236;48.058;10.632;2023-02-12T10:36:36;96544.78;;;5.59;80.21
56330;BME280;42236;48.058;10.632;2023-02-12T10:39:26;96543.22;;;5.68;79.76
56330;BME280;42236;48.058;10.632;2023-02-12T10:45:01;96534.44;;;5.77;79.46
56330;BME280;42236;48.058;10.632;2023-02-12T10:47:51;96532.56;;;5.83;79.62
56330;BME280;42236;48.058;10.632;2023-02-12T10:53:52;96532.03;;;5.86;79.82
56330;BME280;42236;48.058;10.632;2023-02-12T10:56:38;96521.63;;;5.90;79.97
56330;BME280;42236;48.058;10.632;2023-02-12T10:59:23;96520.31;;;5.97;79.65
56330;BME280;42236;48.058;10.632;2023-02-12T11:02:25;96522.47;;;6.06;79.09
56330;BME280;42236;48.058;10.632;2023-02-12T11:05:24;96515.22;;;6.06;79.16
56330;BME280;42236;48.058;10.632;2023-02-12T11:11:20;96517.13;;;6.11;78.96
56330;BME280;42236;48.058;10.632;2023-02-12T11:14:18;96509.63;;;6.13;78.84
56330;BME280;42236;48.058;10.632;2023-02-12T11:17:05;96514.44;;;6.16;79.03
56330;BME280;42236;48.058;10.632;2023-02-12T11:20:02;96514.47;;;6.21;78.02
56330;BME280;42236;48.058;10.632;2023-02-12T11:22:51;96515.00;;;6.23;77.99
56330;BME280;42236;48.058;10.632;2023-02-12T11:25:37;96516.63;;;6.29;77.68
56330;BME280;42236;48.058;10.632;2023-02-12T11:28:23;96504.03;;;6.30;77.69
56330;BME280;42236;48.058;10.632;2023-02-12T11:36:51;96507.25;;;6.42;77.55
56330;BME280;42236;48.058;10.632;2023-02-12T11:39:38;96508.88;;;6.48;78.05
56330;BME280;42236;48.058;10.632;2023-02-12T11:42:25;96504.31;;;6.54;78.90
56330;BME280;42236;48.058;10.632;2023-02-12T11:45:16;96508.06;;;6.53;78.39
56330;BME280;42236;48.058;10.632;2023-02-12T11:48:12;96508.59;;;6.60;77.84
56330;BME280;42236;48.058;10.632;2023-02-12T11:51:03;96509.16;;;6.67;77.98
56330;BME280;42236;48.058;10.632;2023-02-12T11:53:52;96505.66;;;6.72;78.00
56330;BME280;42236;48.058;10.632;2023-02-12T11:56:44;96501.88;;;6.73;77.91
56330;BME280;42236;48.058;10.632;2023-02-12T12:02:31;96498.13;;;6.84;77.88
56330;BME280;42236;48.058;10.632;2023-02-12T12:05:21;96501.06;;;6.82;78.23
56330;BME280;42236;48.058;10.632;2023-02-12T12:08:15;96495.16;;;6.80;78.41
56330;BME280;42236;48.058;10.632;2023-02-12T12:14:03;96506.44;;;6.82;78.92
56330;BME280;42236;48.058;10.632;2023-02-12T12:17:05;96501.06;;;6.82;79.29
56330;BME280;42236;48.058;10.632;2023-02-12T12:20:16;96492.78;;;6.84;79.43
56330;BME280;42236;48.058;10.632;2023-02-12T12:23:15;96495.16;;;6.86;79.32
56330;BME280;42236;48.058;10.632;2023-02-12T12:26:07;96484.97;;;6.93;79.08
56330;BME280;42236;48.058;10.632;2023-02-12T12:29:46;96493.00;;;6.88;79.30
56330;BME280;42236;48.058;10.632;2023-02-12T12:32:37;96483.63;;;6.85;79.43
56330;BME280;42236;48.058;10.632;2023-02-12T13:02:51;96462.66;;;7.08;79.40
56330;BME280;42236;48.058;10.632;2023-02-12T13:08:55;96458.94;;;6.93;79.47
56330;BME280;42236;48.058;10.632;2023-02-12T13:11:54;96456.75;;;7.00;79.76
56330;BME280;42236;48.058;10.632;2023-02-12T13:14:48;96457.56;;;7.11;79.60
56330;BME280;42236;48.058;10.632;2023-02-12T13:17:47;96451.66;;;7.09;79.55
56330;BME280;42236;48.058;10.632;2023-02-12T13:20:54;96447.09;;;7.04;79.20
56330;BME280;42236;48.058;10.632;2023-02-12T13:24:10;96438.25;;;7.04;79.76
56330;BME280;42236;48.058;10.632;2023-02-12T13:27:01;96443.63;;;7.04;80.00
56330;BME280;42236;48.058;10.632;2023-02-12T13:29:54;96441.75;;;6.99;79.97
56330;BME280;42236;48.058;10.632;2023-02-12T13:32:59;96445.53;;;6.98;80.24
56330;BME280;42236;48.058;10.632;2023-02-12T13:35:52;96439.88;;;7.00;79.69
56330;BME280;42236;48.058;10.632;2023-02-12T13:38:46;96448.19;;;7.03;79.61
56330;BME280;42236;48.058;10.632;2023-02-12T13:41:34;96445.22;;;7.05;79.78
56330;BME280;42236;48.058;10.632;2023-02-12T13:44:40;96444.69;;;7.08;79.67
56330;BME280;42236;48.058;10.632;2023-02-12T13:57:08;96445.25;;;6.95;79.88
56330;BME280;42236;48.058;10.632;2023-02-12T13:59:56;96440.94;;;6.99;79.50
56330;BME280;42236;48.058;10.632;2023-02-12T14:02:45;96439.84;;;7.05;79.42
56330;BME280;42236;48.058;10.632;2023-02-12T14:05:34;96447.91;;;7.05;78.96
56330;BME280;42236;48.058;10.632;2023-02-12T14:08:40;96439.06;;;7.04;78.47
56330;BME280;42236;48.058;10.632;2023-02-12T14:11:27;96442.22;;;7.17;78.66
56330;BME280;42236;48.058;10.632;2023-02-12T14:14:27;96446.28;;;7.09;78.36
56330;BME280;42236;48.058;10.632;2023-02-12T14:20:30;96439.31;;;7.08;77.98
56330;BME280;42236;48.058;10.632;2023-02-12T14:26:20;96434.53;;;6.90;77.86
56330;BME280;42236;48.058;10.632;2023-02-12T14:29:17;96440.94;;;7.04;78.13
56330;BME280;42236;48.058;10.632;2023-02-12T14:35:37;96425.13;;;6.97;78.31
56330;BME280;42236;48.058;10.632;2023-02-12T14:50:22;96425.91;;;7.08;78.04
56330;BME280;42236;48.058;10.632;2023-02-12T14:53:25;96433.94;;;7.03;78.45
56330;BME280;42236;48.058;10.632;2023-02-12T14:56:18;96432.38;;;6.97;79.07
56330;BME280;42236;48.058;10.632;2023-02-12T14:59:05;96428.88;;;7.01;79.00
56330;BME280;42236;48.058;10.632;2023-02-12T15:01:57;96430.75;;;7.06;78.82
56330;BME280;42236;48.058;10.632;2023-02-12T15:04:44;96426.44;;;7.00;78.99
56330;BME280;42236;48.058;10.632;2023-02-12T15:07:34;96426.44;;;7.00;79.02
56330;BME280;42236;48.058;10.632;2023-02-12T15:10:24;96428.56;;;7.03;79.05
56330;BME280;42236;48.058;10.632;2023-02-12T15:13:24;96430.50;;;6.92;79.33
56330;BME280;42236;48.058;10.632;2023-02-12T15:16:22;96438.81;;;6.86;79.91
56330;BME280;42236;48.058;10.632;2023-02-12T15:22:40;96435.63;;;6.78;80.70
56330;BME280;42236;48.058;10.632;2023-02-12T15:25:31;96427.56;;;6.78;80.28
56330;BME280;42236;48.058;10.632;2023-02-12T15:28:22;96428.38;;;6.74;80.34
56330;BME280;42236;48.058;10.632;2023-02-12T15:31:14;96428.69;;;6.67;80.60
56330;BME280;42236;48.058;10.632;2023-02-12T15:34:02;96427.63;;;6.63;80.70
56330;BME280;42236;48.058;10.632;2023-02-12T15:36:48;96418.50;;;6.54;81.28
56330;BME280;42236;48.058;10.632;2023-02-12T15:39:41;96428.44;;;6.43;81.84
56330;BME280;42236;48.058;10.632;2023-02-12T15:42:34;96427.63;;;6.43;81.84
56330;BME280;42236;48.058;10.632;2023-02-12T15:45:24;96424.16;;;6.37;82.12
56330;BME280;42236;48.058;10.632;2023-02-12T15:48:17;96430.59;;;6.31;82.70
56330;BME280;42236;48.058;10.632;2023-02-12T15:51:08;96418.00;;;6.21;82.68
56330;BME280;42236;48.058;10.632;2023-02-12T15:53:57;96420.41;;;6.12;83.09
56330;BME280;42236;48.058;10.632;2023-02-12T15:56:44;96422.81;;;6.09;82.88
56330;BME280;42236;48.058;10.632;2023-02-12T15:59:30;96420.13;;;5.98;83.34
56330;BME280;42236;48.058;10.632;2023-02-12T16:02:19;96422.78;;;5.93;83.49
56330;BME280;42236;48.058;10.632;2023-02-12T16:05:06;96421.69;;;5.89;83.51
56330;BME280;42236;48.058;10.632;2023-02-12T16:07:52;96422.75;;;5.83;84.40
56330;BME280;42236;48.058;10.632;2023-02-12T16:10:42;96421.97;;;5.77;84.31
56330;BME280;42236;48.058;10.632;2023-02-12T16:13:33;96422.22;;;5.71;84.89
56330;BME280;42236;48.058;10.632;2023-02-12T16:16:21;96426.72;;;5.55;85.47
56330;BME280;42236;48.058;10.632;2023-02-12T16:22:12;96426.44;;;5.46;85.09
56330;BME280;42236;48.058;10.632;2023-02-12T16:25:00;96425.34;;;5.37;85.36
56330;BME280;42236;48.058;10.632;2023-02-12T16:27:56;96416.19;;;5.28;85.30
56330;BME280;42236;48.058;10.632;2023-02-12T16:30:43;96425.25;;;5.17;86.08
56330;BME280;42236;48.058;10.632;2023-02-12T16:39:53;96432.84;;;4.82;87.64
56330;BME280;42236;48.058;10.632;2023-02-12T16:42:34;96426.13;;;4.75;87.53
56330;BME280;42236;48.058;10.632;2023-02-12T16:48:19;96432.44;;;4.58;87.69
56330;BME280;42236;48.058;10.632;2023-02-12T16:54:32;96437.66;;;4.38;88.01
56330;BME280;42236;48.058;10.632;2023-02-12T16:57:18;96438.66;;;4.32;87.68
56330;BME280;42236;48.058;10.632;2023-02-12T17:00:05;96439.13;;;4.23;88.03
56330;BME280;42236;48.058;10.632;2023-02-12T17:02:54;96436.66;;;4.17;87.77
56330;BME280;42236;48.058;10.632;2023-02-12T17:05:40;96438.22;;;4.13;87.82
56330;BME280;42236;48.058;10.632;2023-02-12T17:08:33;96445.91;;;4.04;87.83
56330;BME280;42236;48.058;10.632;2023-02-12T17:11:20;96443.44;;;3.97;87.95
56330;BME280;42236;48.058;10.632;2023-02-12T17:14:09;96447.84;;;3.81;88.36
56330;BME280;42236;48.058;10.632;2023-02-12T17:16:58;96447.53;;;3.78;88.41
56330;BME280;42236;48.058;10.632;2023-02-12T17:19:44;96447.78;;;3.76;88.03
56330;BME280;42236;48.058;10.632;2023-02-12T17:22:29;96444.03;;;3.72;88.00
56330;BME280;42236;48.058;10.632;2023-02-12T17:25:15;96449.28;;;3.67;88.11